Time;durP1;ratioP1;P1;durP2;ratioP2;P2;SDS_P1;SDS_P2;PMS_P1;PMS_P2;Temp;Humidity;BMP_temperature;BMP_pressure;BME280_temperature;BME280_humidity;BME280_pressure;Samples;Min_cycle;Max_cycle;Signal;HPM_P1;HPM_P2
2020/12/29 00:00:58;;;;;;;7.38;6.68;;;7.10;99.90;;;;;;5012011;28;20207;-28
2020/12/29 00:03:28;;;;;;;7.65;6.82;;;7.10;99.90;;;;;;5012140;28;20210;-28
2020/12/29 00:05:58;;;;;;;8.13;6.50;;;7.00;99.90;;;;;;5011993;28;20200;-28
2020/12/29 00:08:28;;;;;;;7.40;6.65;;;6.90;99.90;;;;;;5011190;28;20206;-29
2020/12/29 00:11:00;;;;;;;6.80;6.07;;;6.90;99.90;;;;;;5009399;28;20674;-29
2020/12/29 00:13:30;;;;;;;7.57;6.60;;;6.80;99.90;;;;;;5011808;28;20223;-29
2020/12/29 00:16:03;;;;;;;7.45;6.65;;;6.70;99.90;;;;;;5011664;28;20223;-29
2020/12/29 00:18:33;;;;;;;7.57;6.88;;;6.60;99.90;;;;;;5011617;28;20188;-29
2020/12/29 00:21:03;;;;;;;7.93;7.03;;;6.60;99.90;;;;;;5012016;28;20196;-28
2020/12/29 00:23:33;;;;;;;8.10;7.30;;;6.60;99.90;;;;;;5011881;28;20202;-29
2020/12/29 00:26:03;;;;;;;8.90;7.25;;;6.50;99.90;;;;;;5010261;28;20722;-29
2020/12/29 00:28:33;;;;;;;12.07;9.23;;;6.50;99.90;;;;;;5012219;28;20203;-29
2020/12/29 00:31:05;;;;;;;11.48;8.85;;;6.50;99.90;;;;;;5011254;28;20207;-29
2020/12/29 00:33:35;;;;;;;8.63;7.72;;;6.50;99.90;;;;;;5011670;28;20219;-28
2020/12/29 00:36:07;;;;;;;8.20;7.40;;;6.50;99.90;;;;;;5011550;28;20250;-28
2020/12/29 00:38:37;;;;;;;7.65;6.57;;;6.30;99.90;;;;;;5007801;28;20227;-29
2020/12/29 00:41:08;;;;;;;6.20;5.70;;;6.10;99.90;;;;;;5010340;28;20251;-29
2020/12/29 00:43:39;;;;;;;6.88;6.25;;;6.00;99.90;;;;;;4996728;28;20247;-29
2020/12/29 00:46:11;;;;;;;6.55;5.93;;;5.90;99.90;;;;;;5009738;28;20214;-29
2020/12/29 00:48:42;;;;;;;6.15;5.55;;;5.80;99.90;;;;;;5011556;28;20240;-29
2020/12/29 00:51:13;;;;;;;6.00;5.40;;;5.60;99.90;;;;;;4995311;28;20199;-29
2020/12/29 00:53:44;;;;;;;5.18;4.72;;;5.50;99.90;;;;;;5006690;28;20215;-28
2020/12/29 00:56:14;;;;;;;6.43;4.82;;;5.40;99.90;;;;;;5010305;28;20242;-29
2020/12/29 00:58:44;;;;;;;6.03;5.43;;;5.50;99.90;;;;;;5010977;28;20198;-29
2020/12/29 01:01:16;;;;;;;4.63;4.22;;;5.40;99.90;;;;;;5005484;28;20323;-28
2020/12/29 01:03:46;;;;;;;5.68;4.43;;;5.50;99.90;;;;;;5013023;28;20202;-28
2020/12/29 01:06:16;;;;;;;5.43;4.50;;;5.50;99.90;;;;;;5019232;28;20199;-28
2020/12/29 01:08:47;;;;;;;5.47;4.97;;;5.40;99.90;;;;;;5015022;28;20211;-28
2020/12/29 01:11:32;;;;;;;4.78;4.38;;;5.30;99.90;;;;;;5010826;28;20758;-28
2020/12/29 01:14:03;;;;;;;5.55;4.63;;;5.30;99.90;;;;;;5021394;28;20574;-28
2020/12/29 01:16:34;;;;;;;7.03;5.10;;;5.20;99.90;;;;;;5020870;28;20304;-27
2020/12/29 01:19:04;;;;;;;4.93;4.53;;;5.20;99.90;;;;;;5007372;28;20246;-28
2020/12/29 01:21:34;;;;;;;6.53;4.22;;;5.10;99.90;;;;;;5019113;28;20206;-28
2020/12/29 01:24:04;;;;;;;4.53;4.10;;;5.10;99.90;;;;;;5015597;28;20199;-27
2020/12/29 01:26:34;;;;;;;4.13;3.80;;;5.10;99.90;;;;;;5009925;28;20307;-27
2020/12/29 01:29:04;;;;;;;5.22;3.63;;;5.00;99.90;;;;;;5020226;28;20256;-27
2020/12/29 01:31:36;;;;;;;4.57;3.67;;;5.00;99.90;;;;;;5029618;28;20673;-27
2020/12/29 01:34:06;;;;;;;4.47;4.18;;;4.90;99.90;;;;;;5012802;28;20215;-27
2020/12/29 01:36:36;;;;;;;4.07;3.70;;;4.80;99.90;;;;;;5009968;28;20619;-27
2020/12/29 01:39:06;;;;;;;4.15;3.72;;;4.80;99.90;;;;;;5004778;28;20412;-27
2020/12/29 01:41:36;;;;;;;4.20;3.80;;;4.80;99.90;;;;;;4990315;28;20195;-27
2020/12/29 01:44:17;;;;;;;3.95;3.30;;;4.80;99.90;;;;;;5017250;28;20215;-27
2020/12/29 01:46:49;;;;;;;5.28;4.78;;;4.80;99.90;;;;;;5029499;28;20637;-28
2020/12/29 01:49:19;;;;;;;3.95;3.20;;;4.70;99.90;;;;;;5023316;28;20211;-27
2020/12/29 01:51:49;;;;;;;4.25;3.65;;;4.80;99.90;;;;;;5013816;28;20725;-27
2020/12/29 01:54:20;;;;;;;3.90;3.10;;;4.60;99.90;;;;;;5009706;28;20223;-28
2020/12/29 01:56:50;;;;;;;3.95;3.65;;;4.50;99.90;;;;;;5009631;28;20199;-27
2020/12/29 01:59:20;;;;;;;3.58;3.00;;;4.40;99.90;;;;;;5009055;28;20579;-28
2020/12/29 02:01:52;;;;;;;3.83;3.42;;;4.30;99.90;;;;;;5011597;28;20199;-28
2020/12/29 02:04:22;;;;;;;4.10;3.47;;;4.40;99.90;;;;;;5013913;28;20199;-28
2020/12/29 02:06:52;;;;;;;3.80;3.47;;;4.40;99.90;;;;;;5014213;28;20187;-27
2020/12/29 02:09:22;;;;;;;4.88;3.70;;;4.50;99.90;;;;;;5009601;28;20275;-27
2020/12/29 02:11:53;;;;;;;3.80;3.50;;;4.50;99.90;;;;;;5008745;28;20250;-27
2020/12/29 02:14:23;;;;;;;4.07;3.72;;;4.50;99.90;;;;;;5016547;28;20215;-27
2020/12/29 02:16:54;;;;;;;3.75;3.45;;;4.50;99.90;;;;;;5009371;28;20226;-28
2020/12/29 02:19:24;;;;;;;4.15;3.58;;;4.40;99.90;;;;;;5007188;28;20195;-29
2020/12/29 02:21:54;;;;;;;4.43;4.03;;;4.40;99.90;;;;;;5009498;28;20641;-28
2020/12/29 02:24:25;;;;;;;9.35;6.20;;;4.30;99.90;;;;;;5009336;28;20191;-29
2020/12/29 02:26:56;;;;;;;8.27;7.57;;;4.20;99.90;;;;;;5009456;28;20564;-28
2020/12/29 02:29:26;;;;;;;8.52;7.70;;;4.00;99.90;;;;;;5009446;28;20199;-28
2020/12/29 02:31:56;;;;;;;6.72;5.97;;;3.80;99.90;;;;;;5009789;28;20207;-28
2020/12/29 02:34:26;;;;;;;7.15;6.47;;;3.70;99.90;;;;;;5006857;28;20231;-28
2020/12/29 02:36:56;;;;;;;6.30;5.72;;;3.60;99.90;;;;;;5017104;28;20647;-28
2020/12/29 02:39:27;;;;;;;6.03;5.53;;;3.60;99.90;;;;;;5009539;28;20769;-28
2020/12/29 02:41:57;;;;;;;5.50;5.00;;;3.50;99.90;;;;;;5009245;28;20242;-28
2020/12/29 02:44:28;;;;;;;5.70;5.18;;;3.40;99.90;;;;;;5008634;28;20214;-28
2020/12/29 02:46:58;;;;;;;6.70;5.95;;;3.40;99.90;;;;;;5009569;28;20265;-27
2020/12/29 02:49:28;;;;;;;6.32;5.75;;;3.30;99.90;;;;;;5009585;28;20215;-27
2020/12/29 02:51:58;;;;;;;6.38;5.60;;;3.30;99.90;;;;;;5009180;28;20768;-27
2020/12/29 02:54:29;;;;;;;7.80;7.00;;;3.30;99.90;;;;;;5008989;28;20611;-27
2020/12/29 02:57:00;;;;;;;7.75;6.95;;;3.20;99.90;;;;;;5004125;28;20592;-28
2020/12/29 02:59:30;;;;;;;5.90;5.35;;;3.30;99.90;;;;;;5008888;28;20278;-28
2020/12/29 03:02:00;;;;;;;4.95;4.32;;;3.30;99.90;;;;;;5009312;28;20210;-28
2020/12/29 03:04:30;;;;;;;5.78;4.57;;;3.40;99.90;;;;;;5008755;28;20214;-28
2020/12/29 03:07:01;;;;;;;5.95;4.65;;;3.50;99.90;;;;;;4990619;28;20684;-28
2020/12/29 03:09:32;;;;;;;4.60;4.10;;;3.40;99.90;;;;;;4989816;28;20231;-28
2020/12/29 03:12:02;;;;;;;5.97;5.38;;;3.50;99.90;;;;;;4989587;28;20256;-27
2020/12/29 03:14:32;;;;;;;5.28;4.70;;;3.50;99.90;;;;;;4989505;28;20363;-28
2020/12/29 03:17:02;;;;;;;6.93;4.38;;;3.50;99.90;;;;;;4992885;28;20258;-28
2020/12/29 03:19:32;;;;;;;5.70;5.20;;;3.50;99.90;;;;;;5006166;28;20259;-27
2020/12/29 03:22:02;;;;;;;5.07;4.60;;;3.40;99.90;;;;;;5012839;28;20214;-27
2020/12/29 03:24:33;;;;;;;4.30;3.90;;;3.30;99.90;;;;;;5012788;28;20203;-28
2020/12/29 03:27:04;;;;;;;5.45;4.95;;;3.20;99.90;;;;;;5005004;28;20196;-28
2020/12/29 03:29:34;;;;;;;5.35;4.95;;;3.10;99.90;;;;;;5012735;28;20253;-28
2020/12/29 03:32:04;;;;;;;5.43;4.93;;;3.00;99.90;;;;;;5013111;28;20203;-28
2020/12/29 03:34:38;;;;;;;6.13;5.55;;;3.00;99.90;;;;;;5012155;28;20305;-28
2020/12/29 03:37:08;;;;;;;1581.57;274.40;;;3.10;99.90;;;;;;5012684;28;20218;-28
2020/12/29 03:39:43;;;;;;;7.60;6.65;;;3.10;99.90;;;;;;5013335;28;20570;-27
2020/12/29 03:42:13;;;;;;;7.50;6.80;;;3.00;99.90;;;;;;5012484;28;20192;-28
2020/12/29 03:44:43;;;;;;;7.57;6.88;;;2.90;99.90;;;;;;5011923;28;20538;-27
2020/12/29 03:47:13;;;;;;;8.57;7.72;;;2.80;99.90;;;;;;5008532;28;20195;-27
2020/12/29 03:49:51;;;;;;;7.60;6.97;;;2.70;99.90;;;;;;5010813;28;20258;-28
2020/12/29 03:52:36;;;;;;;8.27;7.35;;;2.70;99.90;;;;;;4992527;28;20298;-27
2020/12/29 03:55:08;;;;;;;8.23;7.43;;;2.60;99.90;;;;;;4992574;28;20663;-27
2020/12/29 03:57:38;;;;;;;8.00;7.20;;;2.50;99.90;;;;;;4992695;28;20196;-27
2020/12/29 04:00:08;;;;;;;8.30;7.55;;;2.50;99.90;;;;;;4992046;28;20276;-27
2020/12/29 04:02:38;;;;;;;8.57;7.75;;;2.50;99.90;;;;;;5010413;28;20534;-28
2020/12/29 04:05:08;;;;;;;8.77;7.70;;;2.60;99.90;;;;;;4997239;28;20604;-28
2020/12/29 04:07:51;;;;;;;407.02;73.45;;;2.60;99.90;;;;;;5008842;28;20195;-28
2020/12/29 04:10:47;;;;;;;10.20;8.38;;;2.60;99.90;;;;;;5012394;28;20202;-28
2020/12/29 04:13:21;;;;;;;8.60;7.70;;;2.50;99.90;;;;;;5012598;28;20215;-29
2020/12/29 04:15:54;;;;;;;9.85;8.75;;;2.40;99.90;;;;;;5011605;28;20257;-27
2020/12/29 04:18:24;;;;;;;9.63;8.60;;;2.30;99.90;;;;;;5006878;28;20541;-27
2020/12/29 04:20:54;;;;;;;9.20;8.10;;;2.30;99.90;;;;;;5002167;28;20200;-27
2020/12/29 04:23:24;;;;;;;10.18;9.20;;;2.30;99.90;;;;;;5003132;28;20225;-28
2020/12/29 04:25:55;;;;;;;9.85;8.85;;;2.20;99.90;;;;;;5010773;28;20200;-28
2020/12/29 04:28:26;;;;;;;9.02;8.15;;;2.10;99.90;;;;;;5010851;28;20207;-28
2020/12/29 04:30:57;;;;;;;10.57;9.27;;;2.10;99.90;;;;;;5010744;28;20239;-28
2020/12/29 04:33:27;;;;;;;12.40;10.95;;;2.00;99.90;;;;;;5011234;28;20610;-28
2020/12/29 04:35:57;;;;;;;13.40;11.65;;;2.00;99.90;;;;;;5011352;28;20222;-27
2020/12/29 04:38:27;;;;;;;13.10;11.75;;;2.00;99.90;;;;;;5009096;28;20245;-28
2020/12/29 04:40:59;;;;;;;14.18;12.52;;;2.00;99.90;;;;;;5010662;28;20642;-28
2020/12/29 04:43:31;;;;;;;18.80;12.98;;;2.00;99.90;;;;;;5010431;28;20570;-28
2020/12/29 04:46:03;;;;;;;1229.03;221.52;;;1.90;99.90;;;;;;5012333;28;20570;-28
2020/12/29 04:48:34;;;;;;;36.47;18.00;;;1.90;99.90;;;;;;5008609;28;20651;-28
2020/12/29 04:51:07;;;;;;;13.98;12.80;;;2.10;99.90;;;;;;5011410;28;20207;-28
2020/12/29 04:53:38;;;;;;;13.77;12.27;;;2.00;99.90;;;;;;5011089;28;20227;-28
2020/12/29 04:56:10;;;;;;;13.60;12.18;;;1.80;99.90;;;;;;5010605;28;20265;-29
2020/12/29 04:58:40;;;;;;;13.40;12.05;;;1.70;99.90;;;;;;5009103;28;20197;-28
2020/12/29 05:01:11;;;;;;;13.48;12.07;;;1.70;99.90;;;;;;5010122;28;20210;-28
2020/12/29 05:03:45;;;;;;;14.65;12.70;;;1.60;99.90;;;;;;5010318;28;20211;-27
2020/12/29 05:06:16;;;;;;;13.13;11.82;;;1.60;99.90;;;;;;5008271;28;20199;-27
2020/12/29 05:08:47;;;;;;;15.50;12.30;;;1.60;99.90;;;;;;5011157;28;20674;-27
2020/12/29 05:11:20;;;;;;;13.50;12.20;;;1.60;99.90;;;;;;5009967;28;20246;-28
2020/12/29 05:13:51;;;;;;;61.22;23.10;;;1.60;99.90;;;;;;5010365;28;20318;-28
2020/12/29 05:16:21;;;;;;;14.60;13.10;;;1.70;99.90;;;;;;5010291;28;20199;-28
2020/12/29 05:18:52;;;;;;;16.63;13.27;;;1.60;99.90;;;;;;5010991;28;20350;-28
2020/12/29 05:21:23;;;;;;;14.20;12.13;;;1.50;99.90;;;;;;5009322;28;20241;-28
2020/12/29 05:23:55;;;;;;;13.00;11.80;;;1.50;99.90;;;;;;5010226;28;20196;-29
2020/12/29 05:26:27;;;;;;;12.68;11.48;;;1.50;99.90;;;;;;5010404;28;20291;-29
2020/12/29 05:28:58;;;;;;;14.00;12.55;;;1.40;99.90;;;;;;5003474;28;20275;-29
2020/12/29 05:31:28;;;;;;;15.23;12.73;;;1.40;99.90;;;;;;5009615;28;20300;-28
2020/12/29 05:33:58;;;;;;;14.27;12.55;;;1.30;99.90;;;;;;5009977;28;20215;-29
2020/12/29 05:36:29;;;;;;;12.70;11.50;;;1.20;99.90;;;;;;5009698;28;20195;-28
2020/12/29 05:39:06;;;;;;;13.90;12.50;;;1.20;99.90;;;;;;5009405;28;20184;-29
2020/12/29 05:41:42;;;;;;;13.55;12.13;;;1.20;99.90;;;;;;5009989;28;20191;-29
2020/12/29 05:44:23;;;;;;;20.98;18.95;;;1.10;99.90;;;;;;5009404;28;20195;-29
2020/12/29 05:46:53;;;;;;;42.20;35.10;;;1.10;99.90;;;;;;5010059;28;20261;-29
2020/12/29 05:49:24;;;;;;;57.75;44.47;;;1.10;99.90;;;;;;5008943;28;20669;-29
2020/12/29 05:51:55;;;;;;;55.78;42.13;;;1.10;99.90;;;;;;5010198;28;20196;-29
2020/12/29 05:54:27;;;;;;;49.13;40.25;;;1.10;99.90;;;;;;5009916;28;20667;-30
2020/12/29 05:56:58;;;;;;;38.78;34.55;;;1.10;99.90;;;;;;5009450;28;20195;-30
2020/12/29 05:59:29;;;;;;;50.22;40.38;;;1.10;99.90;;;;;;5016023;28;20199;-28
2020/12/29 06:02:00;;;;;;;50.38;39.72;;;1.10;99.90;;;;;;5010273;28;20195;-28
2020/12/29 06:04:31;;;;;;;39.60;34.47;;;1.00;99.90;;;;;;5009691;28;20214;-28
2020/12/29 06:07:08;;;;;;;26.90;24.17;;;1.00;99.90;;;;;;5009358;28;20210;-28
2020/12/29 06:09:41;;;;;;;22.45;20.20;;;1.00;99.90;;;;;;5009951;28;20207;-28
2020/12/29 06:12:26;;;;;;;21.10;19.08;;;1.00;99.90;;;;;;5009298;28;20242;-29
2020/12/29 06:14:58;;;;;;;19.15;17.15;;;0.90;99.90;;;;;;5009503;28;20223;-28
2020/12/29 06:17:34;;;;;;;21.05;18.52;;;0.90;99.90;;;;;;5009803;28;20302;-28
2020/12/29 06:20:06;;;;;;;20.52;16.90;;;0.90;99.90;;;;;;5009315;28;20670;-29
2020/12/29 06:22:46;;;;;;;21.02;17.30;;;0.80;99.90;;;;;;5009124;28;20210;-29
2020/12/29 06:25:19;;;;;;;18.45;16.45;;;0.80;99.90;;;;;;4997562;28;20188;-28
2020/12/29 06:27:53;;;;;;;18.67;16.73;;;0.80;99.90;;;;;;5006547;28;20651;-27
2020/12/29 06:30:23;;;;;;;21.35;18.40;;;0.80;99.90;;;;;;5020958;28;20186;-28
2020/12/29 06:32:55;;;;;;;21.63;18.63;;;0.80;99.90;;;;;;5009704;28;20690;-29
2020/12/29 06:35:26;;;;;;;18.98;16.83;;;0.80;99.90;;;;;;5007927;28;20898;-29
2020/12/29 06:38:06;;;;;;;21.95;17.90;;;0.70;99.90;;;;;;4992476;28;20407;-29
2020/12/29 06:40:37;;;;;;;17.70;15.90;;;0.70;99.90;;;;;;5001781;28;20583;-28
2020/12/29 06:43:11;;;;;;;21.98;18.15;;;0.70;99.90;;;;;;5005518;28;20506;-29
2020/12/29 06:45:41;;;;;;;19.90;17.75;;;0.70;99.90;;;;;;5006297;28;20281;-29
2020/12/29 06:48:18;;;;;;;20.92;16.98;;;0.60;99.90;;;;;;5008844;28;20237;-29
2020/12/29 06:50:49;;;;;;;22.45;18.42;;;0.60;99.90;;;;;;5010698;28;20634;-29
2020/12/29 06:53:19;;;;;;;20.88;18.35;;;0.70;99.90;;;;;;5012746;28;20318;-28
2020/12/29 06:55:51;;;;;;;19.70;17.70;;;0.70;99.90;;;;;;5012876;28;20206;-29
2020/12/29 06:58:43;;;;;;;21.02;17.65;;;0.60;99.90;;;;;;5007037;28;20651;-29
2020/12/29 07:01:24;;;;;;;24.27;17.33;;;0.60;99.90;;;;;;5017008;28;20286;-29
2020/12/29 07:04:05;;;;;;;20.23;18.02;;;0.50;99.90;;;;;;5012969;28;20199;-29
2020/12/29 07:06:37;;;;;;;21.15;17.38;;;0.50;99.90;;;;;;5016375;28;20278;-29
2020/12/29 07:09:27;;;;;;;18.17;15.57;;;0.50;99.90;;;;;;5029580;28;20269;-29
2020/12/29 07:12:05;;;;;;;16.90;15.20;;;0.50;99.90;;;;;;5022241;28;20298;-29
2020/12/29 07:14:39;;;;;;;17.38;15.55;;;0.50;99.90;;;;;;5011181;28;20229;-29
2020/12/29 07:17:09;;;;;;;20.67;16.95;;;0.50;99.90;;;;;;5015654;28;20673;-29
2020/12/29 07:19:40;;;;;;;20.77;17.55;;;0.50;99.90;;;;;;5012189;28;20214;-29
2020/12/29 07:22:18;;;;;;;24.50;19.95;;;0.50;99.90;;;;;;5009009;28;20230;-28
2020/12/29 07:24:48;;;;;;;26.23;19.75;;;0.40;99.90;;;;;;5012560;28;20819;-29
2020/12/29 07:27:21;;;;;;;27.60;21.30;;;0.40;99.90;;;;;;5012422;28;20204;-29
2020/12/29 07:29:58;;;;;;;21.55;19.38;;;0.40;99.90;;;;;;5012400;28;20640;-29
2020/12/29 07:32:28;;;;;;;24.70;20.02;;;0.40;99.90;;;;;;5012492;28;20199;-29
2020/12/29 07:35:00;;;;;;;22.13;19.73;;;0.30;99.90;;;;;;5012946;28;20219;-29
2020/12/29 07:37:33;;;;;;;24.73;22.15;;;0.30;99.90;;;;;;5012385;28;20223;-29
2020/12/29 07:40:04;;;;;;;22.80;20.17;;;0.30;99.90;;;;;;5012450;28;20199;-29
2020/12/29 07:42:34;;;;;;;23.13;18.40;;;0.30;99.90;;;;;;4998493;28;20202;-29
2020/12/29 07:45:05;;;;;;;19.35;16.02;;;0.30;99.90;;;;;;5012597;28;20218;-29
2020/12/29 07:47:35;;;;;;;15.98;14.40;;;0.30;99.90;;;;;;5011537;28;20725;-29
2020/12/29 07:50:05;;;;;;;18.00;16.10;;;0.30;99.90;;;;;;5012792;28;20269;-29
2020/12/29 07:52:35;;;;;;;18.35;15.32;;;0.40;99.90;;;;;;5011917;28;20244;-29
2020/12/29 07:55:10;;;;;;;20.80;16.27;;;0.30;99.90;;;;;;5012623;28;20227;-29
2020/12/29 07:57:40;;;;;;;18.45;16.50;;;0.30;99.90;;;;;;5011727;28;20199;-29
2020/12/29 08:00:16;;;;;;;24.77;17.70;;;0.30;99.90;;;;;;5011737;28;20219;-28
2020/12/29 08:02:52;;;;;;;15.98;14.27;;;0.40;99.90;;;;;;5011424;28;20245;-28
2020/12/29 08:05:22;;;;;;;18.63;16.02;;;0.40;99.90;;;;;;5012246;28;20265;-29
2020/12/29 08:07:56;;;;;;;15.77;14.05;;;0.40;99.90;;;;;;5012081;28;20242;-28
2020/12/29 08:10:28;;;;;;;18.75;16.52;;;0.40;99.90;;;;;;5008720;28;20620;-28
2020/12/29 08:12:59;;;;;;;18.77;16.73;;;0.50;99.90;;;;;;5000942;28;20254;-29
2020/12/29 08:15:31;;;;;;;17.38;15.25;;;0.50;99.90;;;;;;5010931;28;20586;-29
2020/12/29 08:18:11;;;;;;;18.33;16.30;;;0.40;99.90;;;;;;5011690;28;20328;-29
2020/12/29 08:20:45;;;;;;;15.73;14.18;;;0.40;99.90;;;;;;5012098;28;20199;-29
2020/12/29 08:23:16;;;;;;;16.70;14.05;;;0.40;99.90;;;;;;5011762;28;20623;-29
2020/12/29 08:25:49;;;;;;;16.27;13.98;;;0.30;99.90;;;;;;5011474;28;20203;-29
2020/12/29 08:28:20;;;;;;;16.00;14.30;;;0.40;99.90;;;;;;5011998;28;20686;-29
2020/12/29 08:30:52;;;;;;;15.52;14.02;;;0.30;99.90;;;;;;5007861;28;20535;-29
2020/12/29 08:33:24;;;;;;;15.38;13.55;;;0.20;99.90;;;;;;5010535;28;20237;-29
2020/12/29 08:35:57;;;;;;;14.98;13.27;;;0.30;99.90;;;;;;5011318;28;20635;-28
2020/12/29 08:38:44;;;;;;;16.40;14.68;;;0.20;99.90;;;;;;5009269;28;20227;-28
2020/12/29 08:41:22;;;;;;;17.20;14.88;;;0.10;99.90;;;;;;5003639;28;20536;-28
2020/12/29 08:43:53;;;;;;;15.63;14.00;;;0.10;99.90;;;;;;5011724;28;20188;-28
2020/12/29 08:46:25;;;;;;;14.07;12.10;;;0.20;99.90;;;;;;5011279;28;20199;-28
2020/12/29 08:48:57;;;;;;;16.55;14.40;;;0.20;99.90;;;;;;5011581;28;20245;-28
2020/12/29 08:51:29;;;;;;;14.80;13.13;;;0.20;99.90;;;;;;5004715;28;20242;-29
2020/12/29 08:54:08;;;;;;;14.82;13.20;;;0.30;99.90;;;;;;5011520;28;20663;-29
2020/12/29 08:56:39;;;;;;;16.55;13.65;;;0.20;99.90;;;;;;5010825;28;20643;-29
2020/12/29 08:59:13;;;;;;;15.32;13.73;;;0.10;99.90;;;;;;5010985;28;20203;-29
2020/12/29 09:01:46;;;;;;;15.07;13.55;;;0.10;99.90;;;;;;4996184;28;20191;-29
2020/12/29 09:04:30;;;;;;;16.15;13.85;;;0.10;99.90;;;;;;5011317;28;20297;-29
2020/12/29 09:07:05;;;;;;;17.17;14.40;;;0.10;99.90;;;;;;5006307;28;20776;-29
2020/12/29 09:09:37;;;;;;;17.30;15.45;;;0.10;99.90;;;;;;4995834;28;20533;-29
2020/12/29 09:12:15;;;;;;;17.25;14.30;;;0.10;99.90;;;;;;5010451;28;20230;-29
2020/12/29 09:14:55;;;;;;;15.75;14.18;;;0.00;99.90;;;;;;5009326;28;20564;-29
2020/12/29 09:17:28;;;;;;;15.07;13.52;;;0.00;99.90;;;;;;5010882;28;20602;-29
2020/12/29 09:20:14;;;;;;;15.55;14.02;;;-0.10;99.90;;;;;;5010674;28;20557;-29
2020/12/29 09:22:53;;;;;;;16.30;13.20;;;0.00;99.90;;;;;;5007992;28;20219;-29
2020/12/29 09:25:25;;;;;;;15.95;14.25;;;-0.10;99.90;;;;;;4995169;28;20188;-29
2020/12/29 09:28:15;;;;;;;15.20;13.02;;;-0.20;99.90;;;;;;5009795;28;20203;-29
2020/12/29 09:30:47;;;;;;;14.55;12.57;;;-0.20;99.90;;;;;;5010646;28;20191;-29
2020/12/29 09:33:23;;;;;;;12.32;11.13;;;-0.20;99.90;;;;;;5010287;28;20651;-29
2020/12/29 09:35:53;;;;;;;12.38;11.00;;;-0.20;99.90;;;;;;5007519;28;20605;-28
2020/12/29 09:38:23;;;;;;;13.35;11.85;;;-0.20;99.90;;;;;;5008799;28;20734;-29
2020/12/29 09:41:01;;;;;;;15.40;12.05;;;-0.20;99.90;;;;;;5008735;28;20199;-29
2020/12/29 09:43:32;;;;;;;12.95;10.57;;;-0.20;99.90;;;;;;5010095;28;20196;-29
2020/12/29 09:46:02;;;;;;;11.90;10.65;;;-0.10;99.90;;;;;;5009794;28;20505;-29
2020/12/29 09:48:34;;;;;;;14.63;10.68;;;-0.10;99.90;;;;;;5010411;28;20210;-28
2020/12/29 09:51:04;;;;;;;13.45;11.20;;;-0.20;99.90;;;;;;5009843;28;20199;-29
2020/12/29 09:53:34;;;;;;;11.90;10.07;;;-0.20;99.90;;;;;;5005742;28;20199;-29
2020/12/29 09:56:04;;;;;;;11.00;10.00;;;-0.20;99.90;;;;;;5009723;28;20570;-29
2020/12/29 09:58:35;;;;;;;11.85;10.35;;;-0.20;99.90;;;;;;5010419;28;20187;-29
2020/12/29 10:01:05;;;;;;;10.30;9.23;;;-0.10;99.90;;;;;;5009608;28;20195;-29
2020/12/29 10:03:36;;;;;;;11.02;9.98;;;-0.20;99.90;;;;;;5009796;28;20286;-29
2020/12/29 10:06:06;;;;;;;11.32;10.13;;;-0.20;99.90;;;;;;5009814;28;20196;-28
2020/12/29 10:08:37;;;;;;;9.23;8.32;;;-0.20;99.90;;;;;;5010196;28;20302;-29
2020/12/29 10:11:07;;;;;;;10.10;9.10;;;-0.20;99.90;;;;;;5009265;28;20250;-28
2020/12/29 10:13:37;;;;;;;12.07;9.90;;;-0.10;99.90;;;;;;4995376;28;20203;-29
2020/12/29 10:16:07;;;;;;;9.63;8.40;;;-0.10;99.90;;;;;;5009453;28;20211;-29
2020/12/29 10:18:39;;;;;;;10.52;9.55;;;-0.20;99.90;;;;;;5010154;28;20547;-29
2020/12/29 10:21:11;;;;;;;10.75;9.75;;;-0.20;99.90;;;;;;5008194;28;20222;-29
2020/12/29 10:23:41;;;;;;;9.63;8.82;;;-0.20;99.90;;;;;;5009887;28;20235;-29
2020/12/29 10:26:11;;;;;;;11.13;10.02;;;-0.20;99.90;;;;;;5008857;28;20199;-28
2020/12/29 10:28:42;;;;;;;10.80;9.70;;;-0.20;99.90;;;;;;5009979;28;20238;-28
2020/12/29 10:31:12;;;;;;;11.27;10.05;;;-0.20;99.90;;;;;;4993326;28;20206;-29
2020/12/29 10:33:43;;;;;;;10.15;9.18;;;-0.30;99.90;;;;;;5009282;28;20584;-28
2020/12/29 10:36:13;;;;;;;11.82;10.60;;;-0.20;99.90;;;;;;5001325;28;20195;-29
2020/12/29 10:38:43;;;;;;;11.20;10.10;;;-0.30;99.90;;;;;;4996331;28;20207;-29
2020/12/29 10:41:14;;;;;;;12.35;9.90;;;-0.20;99.90;;;;;;5008798;28;20191;-29
2020/12/29 10:43:44;;;;;;;14.40;10.50;;;-0.30;99.90;;;;;;5009978;28;20245;-29
2020/12/29 10:46:14;;;;;;;13.27;10.95;;;-0.30;99.90;;;;;;5009028;28;20628;-29
2020/12/29 10:48:46;;;;;;;11.50;9.55;;;-0.30;99.90;;;;;;5009726;28;20262;-29
2020/12/29 10:51:19;;;;;;;10.32;9.40;;;-0.30;99.90;;;;;;5006685;28;20202;-29
2020/12/29 10:53:49;;;;;;;13.23;10.13;;;-0.30;99.90;;;;;;5000888;28;20200;-29
2020/12/29 10:56:20;;;;;;;11.65;10.45;;;-0.30;99.90;;;;;;5009202;28;20202;-29
2020/12/29 10:58:50;;;;;;;12.95;9.65;;;-0.30;99.90;;;;;;5008072;28;20199;-29
2020/12/29 11:01:25;;;;;;;14.32;11.35;;;-0.20;99.90;;;;;;5008653;28;20621;-29
2020/12/29 11:03:56;;;;;;;10.40;9.40;;;-0.30;99.90;;;;;;5009506;28;20195;-29
2020/12/29 11:06:26;;;;;;;12.45;11.15;;;-0.30;99.90;;;;;;5008534;28;20286;-29
2020/12/29 11:08:56;;;;;;;12.65;10.38;;;-0.30;99.90;;;;;;5009649;28;20632;-29
2020/12/29 11:11:26;;;;;;;12.93;10.00;;;-0.30;99.90;;;;;;5008778;28;20725;-29
2020/12/29 11:13:56;;;;;;;11.70;10.00;;;-0.20;99.90;;;;;;5009386;28;20263;-27
2020/12/29 11:16:26;;;;;;;11.52;9.05;;;-0.20;99.90;;;;;;5006125;28;20200;-29
2020/12/29 11:18:57;;;;;;;11.85;10.02;;;-0.20;99.90;;;;;;4998389;28;20231;-29
2020/12/29 11:21:27;;;;;;;10.23;9.13;;;-0.30;99.90;;;;;;5002614;28;20429;-29
2020/12/29 11:23:57;;;;;;;9.63;8.63;;;-0.30;99.90;;;;;;5009401;28;20207;-29
2020/12/29 11:26:27;;;;;;;11.05;9.85;;;-0.20;99.90;;;;;;4993500;28;20203;-29
2020/12/29 11:28:57;;;;;;;13.95;10.48;;;-0.30;99.90;;;;;;5009241;28;20207;-29
2020/12/29 11:31:28;;;;;;;11.45;10.15;;;-0.10;99.90;;;;;;5004197;28;20671;-29
2020/12/29 11:33:59;;;;;;;12.90;10.57;;;-0.10;99.90;;;;;;5008930;28;20260;-29
2020/12/29 11:36:29;;;;;;;10.77;9.55;;;-0.10;99.90;;;;;;5009266;28;20245;-29
2020/12/29 11:38:59;;;;;;;10.98;9.40;;;-0.20;99.90;;;;;;5012290;28;20232;-29
2020/12/29 11:41:29;;;;;;;10.15;9.15;;;-0.10;99.90;;;;;;5012188;28;20618;-29
2020/12/29 11:43:59;;;;;;;9.90;8.77;;;0.00;99.90;;;;;;5012711;28;20284;-29
2020/12/29 11:46:29;;;;;;;12.90;8.80;;;0.00;99.90;;;;;;5011840;28;20199;-29
2020/12/29 11:49:00;;;;;;;11.05;7.85;;;0.00;99.90;;;;;;5012595;28;20211;-29
2020/12/29 11:51:30;;;;;;;9.40;8.50;;;0.00;99.90;;;;;;5012307;28;20192;-29
2020/12/29 11:54:00;;;;;;;8.23;7.40;;;0.10;99.90;;;;;;5010038;28;20198;-28
2020/12/29 11:56:30;;;;;;;11.57;7.00;;;0.10;99.90;;;;;;5011455;28;20203;-28
2020/12/29 11:59:00;;;;;;;8.15;6.72;;;0.20;99.90;;;;;;5009026;28;20195;-29
2020/12/29 12:01:30;;;;;;;7.82;6.25;;;0.10;99.90;;;;;;5008451;28;20199;-29
2020/12/29 12:04:01;;;;;;;8.10;5.72;;;0.20;99.90;;;;;;5013547;28;20207;-29
2020/12/29 12:06:36;;;;;;;6.68;5.95;;;0.20;99.90;;;;;;5012000;28;20206;-29
2020/12/29 12:09:06;;;;;;;9.88;5.88;;;0.20;99.90;;;;;;5011965;28;20681;-29
2020/12/29 12:11:36;;;;;;;6.32;5.72;;;0.20;99.90;;;;;;5010536;28;20297;-29
2020/12/29 12:14:06;;;;;;;5.35;4.78;;;0.20;99.90;;;;;;5012484;28;20226;-29
2020/12/29 12:16:39;;;;;;;6.07;5.47;;;0.30;99.90;;;;;;5012275;28;20199;-29
2020/12/29 12:19:10;;;;;;;4.68;4.28;;;0.30;99.90;;;;;;5011526;28;20199;-29
2020/12/29 12:21:40;;;;;;;5.15;4.32;;;0.30;99.90;;;;;;5012338;28;20237;-29
2020/12/29 12:24:10;;;;;;;5.15;4.65;;;0.30;99.90;;;;;;5012112;28;20690;-29
2020/12/29 12:26:40;;;;;;;6.63;6.03;;;0.30;99.90;;;;;;5006060;28;20199;-29
2020/12/29 12:29:10;;;;;;;5.05;4.40;;;0.30;99.90;;;;;;5011290;28;20203;-29
2020/12/29 12:31:40;;;;;;;6.43;5.40;;;0.30;99.90;;;;;;5012047;28;20211;-29
2020/12/29 12:34:12;;;;;;;6.55;5.50;;;0.30;99.90;;;;;;5011496;28;20568;-29
2020/12/29 12:36:42;;;;;;;6.75;6.03;;;0.30;99.90;;;;;;5011540;28;20276;-29
2020/12/29 12:39:12;;;;;;;7.28;5.93;;;0.30;99.90;;;;;;5011551;28;20258;-29
2020/12/29 12:41:44;;;;;;;9.00;7.07;;;0.30;99.90;;;;;;5011330;28;20725;-29
2020/12/29 12:44:14;;;;;;;8.52;6.70;;;0.30;99.90;;;;;;5007860;28;20187;-29
2020/12/29 12:46:44;;;;;;;8.90;8.05;;;0.30;99.90;;;;;;5007749;28;20203;-29
2020/12/29 12:49:15;;;;;;;12.77;10.70;;;0.30;99.90;;;;;;4997329;28;20623;-29
2020/12/29 12:51:53;;;;;;;14.45;12.60;;;0.40;99.90;;;;;;4997316;28;20191;-29
2020/12/29 12:54:23;;;;;;;15.18;12.75;;;0.50;99.90;;;;;;5011171;28;20628;-29
2020/12/29 12:56:54;;;;;;;22.83;13.60;;;0.50;99.90;;;;;;5009773;28;20558;-29
2020/12/29 12:59:24;;;;;;;15.32;13.15;;;0.50;99.90;;;;;;5010211;28;20203;-29
2020/12/29 13:01:55;;;;;;;17.67;13.88;;;0.50;99.90;;;;;;5011112;28;20188;-29
2020/12/29 13:04:26;;;;;;;15.80;14.05;;;0.50;99.90;;;;;;5009146;28;20323;-29
2020/12/29 13:06:58;;;;;;;19.48;16.35;;;0.40;99.90;;;;;;5008828;28;20188;-29